Strona główna
METAR-TAF:

METAR-TAF

Lotnisko :

Port lotniczy Sanya-Phoenix

Sanya, Chiny

Szerokość geograficzna: 18-18N, Długość geograficzna: 109-24E, wysokość: 27 m

Aktualna obserwacja pogody

Raport powstał 39 minut temu, godzina 16:00 UTC
Wiatr 6 kt od wschód
Temperatura 25°C
Wilgotność 89%
Ciśnienie 1014 hPa
Widzialność 10 km lub więcej
Mało chmury na wysokości 1700 ft
Rozproszone chmury na wysokości 2000 ft

METAR: ZJSY 121600Z 09003MPS 9999 FEW017 SCT020 25/23 Q1014 NOSIG

czas: 00:39 (16:39 UTC)

Prognoza

Raport powstał 7 godziny i 36 minut temu, godzina 09:03 UTC
Prognoza ważna od 12 godzina 12 UTC do 13 godzina 12 UTC
Wiatr 8 kt od wschód
Widzialność 10 km lub więcej
Mało chmury na wysokości 2000 ft

TAF: ZJSY 120903Z 1212/1312 08004MPS 9999 FEW020 TX30/1306Z TN23/1221Z

Obserwacja i prognoza pogody dla ponad 4000 lotnisk (raport METAR i TAF).

Dostępne stacje oznaczono żółtymi i czerwonymi punktami na mapie.

Najedź kursorem aby zobaczyć nazwę stacji.

Kliknij aby zobaczyć obserwacje i prognozy pogody.

Aby zmienić mapę: kliknij na zielony przycisk z czarnym krzyżykiem, aby powiększyć; na zielony przycisk z myślnikiem, aby pomniejszyć; na zielone strzałki, aby przejść do map sąsiednich.


METAR-TAF: